createdAt,value
2017-09-03T00:00:09.054Z,85.50
2017-09-03T00:02:37.139Z,85.70
2017-09-03T00:05:05.211Z,85.40
2017-09-03T00:07:33.304Z,85.40
2017-09-03T00:10:01.356Z,85.50
2017-09-03T00:12:29.438Z,85.70
2017-09-03T00:14:57.508Z,85.50
2017-09-03T00:17:25.572Z,85.10
2017-09-03T00:19:53.625Z,85.10
2017-09-03T00:22:21.694Z,85.30
2017-09-03T00:24:50.540Z,85.60
2017-09-03T00:27:18.598Z,85.60
2017-09-03T00:29:46.656Z,85.90
2017-09-03T00:32:14.719Z,85.70
2017-09-03T00:34:42.812Z,85.00
2017-09-03T00:37:10.883Z,85.30
2017-09-03T00:39:38.973Z,85.80
2017-09-03T00:42:07.017Z,85.80
2017-09-03T00:44:35.061Z,85.80
2017-09-03T00:47:03.127Z,85.60
2017-09-03T00:49:31.184Z,85.30
2017-09-03T00:51:59.251Z,85.50
2017-09-03T00:54:27.312Z,85.20
2017-09-03T00:56:55.471Z,85.00
2017-09-03T00:59:23.522Z,84.60
2017-09-03T01:01:51.600Z,84.40
2017-09-03T01:04:20.414Z,85.20
2017-09-03T01:06:48.516Z,85.20
2017-09-03T01:09:16.580Z,85.10
2017-09-03T01:11:45.177Z,84.90
2017-09-03T01:14:13.244Z,84.80
2017-09-03T01:16:41.304Z,84.90
2017-09-03T01:19:09.389Z,84.80
2017-09-03T01:21:37.458Z,85.50
2017-09-03T01:24:05.499Z,85.60
2017-09-03T01:26:34.496Z,85.20
2017-09-03T01:29:02.554Z,84.50
2017-09-03T01:31:30.639Z,84.60
2017-09-03T01:33:58.695Z,84.90
2017-09-03T01:36:26.767Z,85.20
2017-09-03T01:38:54.835Z,85.20
2017-09-03T01:41:22.894Z,85.30
2017-09-03T01:43:50.955Z,85.30
2017-09-03T01:46:19.023Z,85.30
2017-09-03T01:48:47.095Z,85.40
2017-09-03T01:51:15.146Z,85.10
2017-09-03T01:53:43.978Z,84.90
2017-09-03T01:56:12.042Z,84.70
2017-09-03T01:58:40.117Z,84.80
2017-09-03T02:01:08.175Z,84.90
2017-09-03T02:03:36.246Z,85.30
2017-09-03T02:06:04.318Z,84.80
2017-09-03T02:08:32.372Z,84.90
2017-09-03T02:11:00.462Z,85.10
2017-09-03T02:13:28.506Z,85.10
2017-09-03T02:15:56.554Z,85.50
2017-09-03T02:18:24.636Z,85.10
2017-09-03T02:20:52.696Z,84.90
2017-09-03T02:23:20.768Z,84.70
2017-09-03T02:25:48.834Z,84.40
2017-09-03T02:28:16.907Z,84.00
2017-09-03T02:30:44.977Z,84.00
2017-09-03T02:33:13.048Z,84.00
2017-09-03T02:35:41.123Z,83.80
2017-09-03T02:38:09.196Z,83.50
2017-09-03T02:40:37.245Z,83.40
2017-09-03T02:43:06.064Z,83.90
2017-09-03T02:45:34.130Z,83.80
2017-09-03T02:48:02.199Z,83.90
2017-09-03T02:50:30.283Z,84.30
2017-09-03T02:52:58.343Z,84.20
2017-09-03T02:55:26.420Z,83.80
2017-09-03T02:57:55.027Z,84.10
2017-09-03T03:00:23.099Z,84.60
2017-09-03T03:02:51.914Z,84.50
2017-09-03T03:05:19.973Z,84.40
2017-09-03T03:07:48.815Z,84.20
2017-09-03T03:10:16.893Z,84.20
2017-09-03T03:12:44.944Z,83.90
2017-09-03T03:15:13.022Z,84.20
2017-09-03T03:17:41.105Z,84.10
2017-09-03T03:20:09.135Z,84.30
2017-09-03T03:22:37.215Z,84.70
2017-09-03T03:25:05.270Z,85.30
2017-09-03T03:27:33.351Z,84.60
2017-09-03T03:30:01.429Z,84.60
2017-09-03T03:32:29.514Z,84.60
2017-09-03T03:34:57.571Z,85.50
2017-09-03T03:37:25.629Z,85.30
2017-09-03T03:39:59.634Z,85.80
2017-09-03T03:42:27.683Z,86.00
2017-09-03T03:44:55.741Z,85.90
2017-09-03T03:47:24.571Z,85.20
2017-09-03T03:49:53.279Z,85.10
2017-09-03T03:52:21.339Z,84.90
2017-09-03T03:54:49.400Z,84.90
2017-09-03T03:57:17.455Z,84.80
2017-09-03T03:59:45.526Z,84.80
2017-09-03T04:02:13.613Z,84.30
2017-09-03T04:04:41.670Z,84.20
2017-09-03T04:07:09.745Z,84.20
2017-09-03T04:09:37.810Z,83.80
2017-09-03T04:12:05.883Z,83.70
2017-09-03T04:14:34.719Z,83.90
2017-09-03T04:17:02.784Z,83.80
2017-09-03T04:19:30.854Z,84.10
2017-09-03T04:21:58.932Z,83.70
2017-09-03T04:24:27.003Z,83.80
2017-09-03T04:26:55.069Z,84.00
2017-09-03T04:29:23.123Z,84.20
2017-09-03T04:31:51.571Z,84.00
2017-09-03T04:34:19.596Z,83.90
2017-09-03T04:36:47.667Z,84.40
2017-09-03T04:39:15.730Z,84.50
2017-09-03T04:41:43.812Z,84.10
2017-09-03T04:44:11.879Z,84.20
2017-09-03T04:46:39.926Z,84.30
2017-09-03T04:49:08.001Z,84.00
2017-09-03T04:51:36.066Z,83.50
2017-09-03T04:54:04.127Z,83.20
2017-09-03T04:56:33.394Z,82.80
2017-09-03T04:59:02.226Z,84.70
2017-09-03T05:01:31.051Z,84.00
2017-09-03T05:03:59.128Z,83.90
2017-09-03T05:06:27.183Z,84.20
2017-09-03T05:08:55.256Z,84.50
2017-09-03T05:11:23.322Z,84.60
2017-09-03T05:13:51.385Z,84.20
2017-09-03T05:16:20.222Z,84.30
2017-09-03T05:18:48.278Z,84.20
2017-09-03T05:21:16.348Z,84.70
2017-09-03T05:23:44.411Z,84.80
2017-09-03T05:26:12.492Z,84.90
2017-09-03T05:28:40.574Z,85.50
2017-09-03T05:31:08.635Z,85.70
2017-09-03T05:33:36.714Z,85.60
2017-09-03T05:36:04.785Z,85.40
2017-09-03T05:38:32.863Z,85.40
2017-09-03T05:41:00.927Z,85.50
2017-09-03T05:43:28.998Z,85.60
2017-09-03T05:45:57.082Z,85.90
2017-09-03T05:48:25.167Z,86.10
2017-09-03T05:50:53.229Z,86.40
2017-09-03T05:53:21.299Z,86.60
2017-09-03T05:55:49.383Z,86.80
2017-09-03T05:58:17.446Z,87.60
2017-09-03T06:00:45.516Z,87.70
2017-09-03T06:03:13.583Z,87.00
2017-09-03T06:05:41.658Z,87.40
2017-09-03T06:08:09.726Z,87.60
2017-09-03T06:13:38.683Z,87.40
2017-09-03T06:16:16.703Z,88.00
2017-09-03T06:18:49.502Z,87.40
2017-09-03T06:21:17.607Z,87.90
2017-09-03T06:23:45.679Z,88.00
2017-09-03T06:26:13.827Z,88.50
2017-09-03T06:28:41.961Z,87.90
2017-09-03T06:31:16.992Z,87.30
2017-09-03T06:33:47.583Z,87.20
2017-09-03T06:36:28.552Z,87.70
2017-09-03T06:38:56.626Z,88.20
2017-09-03T06:41:24.770Z,88.60
2017-09-03T06:43:52.871Z,88.70
2017-09-03T06:46:20.977Z,88.40
2017-09-03T06:48:49.857Z,88.30
2017-09-03T06:51:18.007Z,88.20
2017-09-03T06:53:47.100Z,89.60
2017-09-03T06:59:09.854Z,89.60
2017-09-03T07:01:39.376Z,88.70
2017-09-03T07:04:07.455Z,88.60
2017-09-03T07:06:35.566Z,90.20
2017-09-03T07:09:03.640Z,89.70
2017-09-03T07:11:31.731Z,90.00
2017-09-03T07:13:59.819Z,89.60
2017-09-03T07:16:27.855Z,89.70
2017-09-03T07:18:56.086Z,89.30
2017-09-03T07:21:24.118Z,89.50
2017-09-03T07:23:52.172Z,89.20
2017-09-03T07:26:20.255Z,88.50
2017-09-03T07:28:48.342Z,88.40
2017-09-03T07:31:16.390Z,89.50
2017-09-03T07:33:44.473Z,87.50
2017-09-03T07:36:12.544Z,87.30
2017-09-03T07:38:41.164Z,86.70
2017-09-03T07:41:09.270Z,87.00
2017-09-03T07:43:37.347Z,87.00
2017-09-03T07:46:05.418Z,86.30
2017-09-03T07:48:33.502Z,86.40
2017-09-03T07:51:01.577Z,85.70
2017-09-03T07:53:29.643Z,84.20
2017-09-03T07:55:58.181Z,85.00
2017-09-03T07:58:26.855Z,85.00
2017-09-03T08:00:54.931Z,84.20
2017-09-03T08:03:23.757Z,83.60
2017-09-03T08:05:51.844Z,83.50
2017-09-03T08:08:19.947Z,83.50
2017-09-03T08:10:48.793Z,80.70
2017-09-03T08:13:16.879Z,80.70
2017-09-03T08:15:44.989Z,82.00
2017-09-03T08:18:13.090Z,82.20
2017-09-03T08:20:41.154Z,80.70
2017-09-03T08:23:09.791Z,81.60
2017-09-03T08:25:37.859Z,81.20
2017-09-03T08:28:05.984Z,82.40
2017-09-03T08:30:34.060Z,82.60
2017-09-03T08:33:02.143Z,81.50
2017-09-03T08:35:30.214Z,81.60
2017-09-03T08:37:58.279Z,81.50
2017-09-03T08:40:26.408Z,80.80
2017-09-03T08:42:54.451Z,80.00
2017-09-03T08:45:22.534Z,79.70
2017-09-03T08:47:50.599Z,78.70
2017-09-03T08:50:18.731Z,78.30
2017-09-03T08:52:46.801Z,78.90
2017-09-03T08:55:14.913Z,78.70
2017-09-03T08:57:43.133Z,76.60
2017-09-03T09:00:11.989Z,74.30
2017-09-03T09:02:40.830Z,73.30
2017-09-03T09:05:08.929Z,73.20
2017-09-03T09:07:37.006Z,71.10
2017-09-03T09:10:05.080Z,71.20
2017-09-03T09:12:33.167Z,68.70
2017-09-03T09:15:02.022Z,66.60
2017-09-03T09:17:30.212Z,66.40
2017-09-03T09:19:58.291Z,64.80
2017-09-03T09:22:26.387Z,63.50
2017-09-03T09:24:55.231Z,63.10
2017-09-03T09:27:23.320Z,63.10
2017-09-03T09:29:51.470Z,62.10
2017-09-03T09:32:19.556Z,62.30
2017-09-03T09:34:47.634Z,61.20
2017-09-03T09:37:15.714Z,60.30
2017-09-03T09:39:43.933Z,53.80
2017-09-03T09:42:13.752Z,48.10
2017-09-03T09:44:41.813Z,41.00
2017-09-03T09:47:09.920Z,37.40
2017-09-03T09:49:38.010Z,32.80
2017-09-03T09:52:11.806Z,30.40
2017-09-03T09:54:39.878Z,28.70
2017-09-03T09:57:07.937Z,27.60
2017-09-03T09:59:36.026Z,27.60
2017-09-03T10:02:04.094Z,27.20
2017-09-03T10:04:32.169Z,27.50
2017-09-03T10:07:00.237Z,27.60
2017-09-03T10:09:28.347Z,27.10
2017-09-03T10:11:56.419Z,27.60
2017-09-03T10:14:24.483Z,26.30
2017-09-03T10:16:52.563Z,26.70
2017-09-03T10:19:20.623Z,26.80
2017-09-03T10:21:48.724Z,26.80
2017-09-03T10:24:16.787Z,26.00
2017-09-03T10:26:44.855Z,25.70
2017-09-03T10:29:12.939Z,25.50
2017-09-03T10:31:41.039Z,27.00
2017-09-03T10:34:09.108Z,28.50
2017-09-03T10:36:37.204Z,32.00
2017-09-03T10:39:05.269Z,34.10
2017-09-03T10:41:33.328Z,34.50
2017-09-03T10:44:01.420Z,32.40
2017-09-03T10:46:29.467Z,33.50
2017-09-03T10:48:57.535Z,33.30
2017-09-03T10:51:25.615Z,31.30
2017-09-03T10:53:53.682Z,29.20
2017-09-03T10:56:22.627Z,27.40
2017-09-03T10:58:50.699Z,26.20
2017-09-03T11:01:18.758Z,25.50
2017-09-03T11:03:46.850Z,25.50
2017-09-03T11:06:15.313Z,26.40
2017-09-03T11:08:43.377Z,26.60
2017-09-03T11:11:12.238Z,28.00
2017-09-03T11:13:40.296Z,27.90
2017-09-03T11:16:08.367Z,27.20
2017-09-03T11:18:36.468Z,27.60
2017-09-03T11:21:05.305Z,29.40
2017-09-03T11:23:33.361Z,29.40
2017-09-03T11:26:01.439Z,30.80
2017-09-03T11:28:29.540Z,31.70
2017-09-03T11:30:57.607Z,31.30
2017-09-03T11:33:25.692Z,31.30
2017-09-03T11:35:53.751Z,31.60
2017-09-03T11:38:22.774Z,33.20
2017-09-03T11:40:50.827Z,34.90
2017-09-03T11:43:18.900Z,36.40
2017-09-03T11:45:46.966Z,38.30
2017-09-03T11:48:15.076Z,40.30
2017-09-03T11:50:43.897Z,36.80
2017-09-03T11:53:11.952Z,36.80
2017-09-03T11:55:40.025Z,33.80
2017-09-03T11:58:08.091Z,31.80
2017-09-03T12:00:36.183Z,32.20
2017-09-03T12:03:04.235Z,32.10
2017-09-03T12:05:32.314Z,33.70
2017-09-03T12:08:00.381Z,34.90
2017-09-03T12:10:28.442Z,36.60
2017-09-03T12:12:57.191Z,37.90
2017-09-03T12:15:25.253Z,39.10
2017-09-03T12:17:53.344Z,40.40
2017-09-03T12:20:21.402Z,41.50
2017-09-03T12:22:49.493Z,42.80
2017-09-03T12:25:17.563Z,42.80
2017-09-03T12:27:45.623Z,43.30
2017-09-03T12:30:13.685Z,44.60
2017-09-03T12:32:41.764Z,45.30
2017-09-03T12:35:09.829Z,45.00
2017-09-03T12:37:37.912Z,45.30
2017-09-03T12:40:05.993Z,45.60
2017-09-03T12:42:34.092Z,45.10
2017-09-03T12:45:02.888Z,45.90
2017-09-03T12:47:30.942Z,45.70
2017-09-03T12:49:59.025Z,46.60
2017-09-03T12:52:27.113Z,47.40
2017-09-03T12:54:55.207Z,47.70
2017-09-03T12:57:23.295Z,46.60
2017-09-03T12:59:51.359Z,48.20
2017-09-03T13:02:19.443Z,47.20
2017-09-03T13:04:48.688Z,46.50
2017-09-03T13:07:16.742Z,48.00
2017-09-03T13:09:44.815Z,48.40
2017-09-03T13:12:12.898Z,48.00
2017-09-03T13:14:40.953Z,47.60
2017-09-03T13:17:09.022Z,50.60
2017-09-03T13:19:37.816Z,51.70
2017-09-03T13:22:05.923Z,49.10
2017-09-03T13:37:31.427Z,45.10
2017-09-03T13:39:59.486Z,44.90
2017-09-03T13:42:27.568Z,45.20
2017-09-03T13:44:55.651Z,43.90
2017-09-03T13:47:23.711Z,43.90
2017-09-03T13:49:51.805Z,43.60
2017-09-03T13:52:19.996Z,44.30
2017-09-03T13:54:48.051Z,43.40
2017-09-03T13:57:16.908Z,46.20
2017-09-03T13:59:44.978Z,46.10
2017-09-03T14:02:13.042Z,45.60
2017-09-03T14:04:41.721Z,45.50
2017-09-03T14:07:09.795Z,46.50
2017-09-03T14:09:37.852Z,45.70
2017-09-03T14:12:05.971Z,45.50
2017-09-03T14:14:34.139Z,45.50
2017-09-03T14:17:02.168Z,45.20
2017-09-03T14:19:30.252Z,44.80
2017-09-03T14:21:58.332Z,45.20
2017-09-03T14:24:26.392Z,45.00
2017-09-03T14:26:54.454Z,44.60
2017-09-03T14:29:22.531Z,44.90
2017-09-03T14:31:50.620Z,44.50
2017-09-03T14:34:19.442Z,45.70
2017-09-03T14:36:47.543Z,45.70
2017-09-03T14:39:15.583Z,45.80
2017-09-03T14:41:43.664Z,46.10
2017-09-03T14:44:11.763Z,45.10
2017-09-03T14:46:39.836Z,44.50
2017-09-03T14:49:07.903Z,45.20
2017-09-03T14:51:36.313Z,46.40
2017-09-03T14:54:04.354Z,47.10
2017-09-03T14:56:32.446Z,46.10
2017-09-03T14:59:00.538Z,46.70
2017-09-03T15:01:28.613Z,46.90
2017-09-03T15:03:56.664Z,48.30
2017-09-03T15:06:24.778Z,50.00
2017-09-03T15:08:52.858Z,53.60
2017-09-03T15:11:20.913Z,53.40
2017-09-03T15:13:49.014Z,54.30
2017-09-03T15:16:17.067Z,55.30
2017-09-03T15:18:45.135Z,55.00
2017-09-03T15:21:13.219Z,52.30
2017-09-03T15:23:41.296Z,51.00
2017-09-03T15:26:09.362Z,49.60
2017-09-03T15:28:37.431Z,48.50
2017-09-03T15:31:05.491Z,47.80
2017-09-03T15:33:33.566Z,47.60
2017-09-03T15:36:01.662Z,47.30
2017-09-03T15:38:29.759Z,47.50
2017-09-03T15:40:58.634Z,47.70
2017-09-03T15:43:26.682Z,46.50
2017-09-03T15:45:54.748Z,46.80
2017-09-03T15:48:22.867Z,46.70
2017-09-03T15:50:50.937Z,48.40
2017-09-03T15:53:18.978Z,50.30
2017-09-03T15:55:47.047Z,50.40
2017-09-03T15:58:15.133Z,49.20
2017-09-03T16:00:43.214Z,51.60
2017-09-03T16:03:11.280Z,53.00
2017-09-03T16:05:39.347Z,51.30
2017-09-03T16:08:07.443Z,51.00
2017-09-03T16:10:35.483Z,51.10
2017-09-03T16:13:03.550Z,47.90
2017-09-03T16:15:32.449Z,47.70
2017-09-03T16:18:00.517Z,47.70
2017-09-03T16:20:28.571Z,47.30
2017-09-03T16:22:56.636Z,47.80
2017-09-03T16:25:25.223Z,51.00
2017-09-03T16:27:53.301Z,49.50
2017-09-03T16:30:21.378Z,50.10
2017-09-03T16:32:49.410Z,50.30
2017-09-03T16:35:17.527Z,50.40
2017-09-03T16:37:45.595Z,50.70
2017-09-03T16:40:13.665Z,51.10
2017-09-03T16:42:42.336Z,51.50
2017-09-03T16:45:10.401Z,51.50
2017-09-03T16:47:38.544Z,50.20
2017-09-03T16:50:06.597Z,50.80
2017-09-03T16:52:35.455Z,51.00
2017-09-03T16:55:03.500Z,50.90
2017-09-03T16:57:31.583Z,52.30
2017-09-03T16:59:59.687Z,53.20
2017-09-03T17:02:28.375Z,51.90
2017-09-03T17:04:56.442Z,54.10
2017-09-03T17:07:25.989Z,55.00
2017-09-03T17:09:54.849Z,55.60
2017-09-03T17:12:22.900Z,55.60
2017-09-03T17:14:51.794Z,56.70
2017-09-03T17:17:19.904Z,57.10
2017-09-03T17:19:47.986Z,57.40
2017-09-03T17:22:18.682Z,57.40
2017-09-03T17:24:46.836Z,59.10
2017-09-03T17:27:14.912Z,58.40
2017-09-03T17:29:42.981Z,57.50
2017-09-03T17:32:11.067Z,57.50
2017-09-03T17:48:11.479Z,58.90
2017-09-03T17:50:39.560Z,60.90
2017-09-03T17:53:07.661Z,60.20
2017-09-03T17:55:36.471Z,61.40
2017-09-03T17:58:04.570Z,61.30
2017-09-03T18:00:33.143Z,62.50
2017-09-03T18:03:01.239Z,64.50
2017-09-03T18:05:29.336Z,64.80
2017-09-03T18:07:58.256Z,65.60
2017-09-03T18:10:26.403Z,65.50
2017-09-03T18:12:55.495Z,65.40
2017-09-03T18:15:23.574Z,67.20
2017-09-03T18:17:51.652Z,67.30
2017-09-03T18:20:19.730Z,66.80
2017-09-03T18:22:47.811Z,67.40
2017-09-03T18:25:15.855Z,68.70
2017-09-03T18:27:43.978Z,69.30
2017-09-03T18:30:28.801Z,70.10
2017-09-03T18:32:56.875Z,69.10
2017-09-03T18:35:25.569Z,70.30
2017-09-03T18:37:56.253Z,70.50
2017-09-03T18:40:24.365Z,71.40
2017-09-03T18:42:53.322Z,72.60
2017-09-03T18:45:21.396Z,72.50
2017-09-03T18:47:49.476Z,72.20
2017-09-03T18:50:18.507Z,72.30
2017-09-03T18:52:47.097Z,72.90
2017-09-03T18:55:15.186Z,72.60
2017-09-03T18:57:44.764Z,72.30
2017-09-03T19:00:15.784Z,73.70
2017-09-03T19:02:43.904Z,74.00
2017-09-03T19:05:12.818Z,73.70
2017-09-03T19:07:40.949Z,74.30
2017-09-03T19:10:09.040Z,74.80
2017-09-03T19:12:37.125Z,75.10
2017-09-03T19:15:05.191Z,75.70
2017-09-03T19:17:33.260Z,75.30
2017-09-03T19:20:01.333Z,75.90
2017-09-03T19:22:29.467Z,75.80
2017-09-03T19:24:57.522Z,75.60
2017-09-03T19:27:25.608Z,75.70
2017-09-03T19:29:53.686Z,75.20
2017-09-03T19:32:21.791Z,76.10
2017-09-03T19:34:49.929Z,76.30
2017-09-03T19:37:18.039Z,76.20
2017-09-03T19:39:46.322Z,76.20
2017-09-03T19:42:14.405Z,76.60
2017-09-03T19:44:42.487Z,77.30
2017-09-03T19:47:10.612Z,76.70
2017-09-03T19:49:38.716Z,76.70
2017-09-03T19:52:06.824Z,77.20
2017-09-03T19:54:34.886Z,77.20
2017-09-03T19:57:02.984Z,77.70
2017-09-03T19:59:31.079Z,77.30
2017-09-03T20:01:59.324Z,77.50
2017-09-03T20:04:27.527Z,77.70
2017-09-03T20:06:55.684Z,77.50
2017-09-03T20:09:23.764Z,77.70
2017-09-03T20:11:51.871Z,77.90
2017-09-03T20:14:19.959Z,78.20
2017-09-03T20:16:48.070Z,78.60
2017-09-03T20:19:16.131Z,78.80
2017-09-03T20:21:44.215Z,79.00
2017-09-03T20:24:12.278Z,78.50
2017-09-03T20:26:40.375Z,78.60
2017-09-03T20:29:08.504Z,79.20
2017-09-03T20:31:37.363Z,79.30
2017-09-03T20:34:05.421Z,79.30
2017-09-03T20:36:33.509Z,79.50
2017-09-03T20:39:01.583Z,79.60
2017-09-03T20:41:29.667Z,79.60
2017-09-03T20:43:58.555Z,79.20
2017-09-03T20:46:26.659Z,79.20
2017-09-03T20:48:54.740Z,79.50
2017-09-03T20:51:22.814Z,79.90
2017-09-03T20:53:50.883Z,80.10
2017-09-03T20:56:19.031Z,80.00
2017-09-03T20:58:47.860Z,80.00
2017-09-03T21:01:15.944Z,80.00
2017-09-03T21:03:44.019Z,80.00
2017-09-03T21:06:12.084Z,79.80
2017-09-03T21:08:40.172Z,79.80
2017-09-03T21:11:08.242Z,79.90
2017-09-03T21:13:36.374Z,79.80
2017-09-03T21:16:04.434Z,79.60
2017-09-03T21:18:32.511Z,79.40
2017-09-03T21:21:00.604Z,79.10
2017-09-03T21:23:28.685Z,79.50
2017-09-03T21:25:56.739Z,79.40
2017-09-03T21:28:25.576Z,80.00
2017-09-03T21:30:53.659Z,80.00
2017-09-03T21:33:21.714Z,80.20
2017-09-03T21:35:49.779Z,80.10
2017-09-03T21:38:17.843Z,80.10
2017-09-03T21:40:45.903Z,80.10
2017-09-03T21:43:13.987Z,80.20
2017-09-03T21:45:42.047Z,80.60
2017-09-03T21:48:10.103Z,80.70
2017-09-03T21:50:38.279Z,80.90
2017-09-03T21:53:06.306Z,81.00
2017-09-03T21:55:34.354Z,82.20
2017-09-03T21:58:02.439Z,81.50
2017-09-03T22:00:30.498Z,81.60
2017-09-03T22:02:58.554Z,81.50
2017-09-03T22:05:26.645Z,81.70
2017-09-03T22:07:54.701Z,82.10
2017-09-03T22:10:22.763Z,82.20
2017-09-03T22:12:50.843Z,81.80
2017-09-03T22:15:18.938Z,81.70
2017-09-03T22:17:47.755Z,82.00
2017-09-03T22:20:15.834Z,81.90
2017-09-03T22:22:43.928Z,81.90
2017-09-03T22:25:11.966Z,81.60
2017-09-03T22:27:40.039Z,81.80
2017-09-03T22:30:08.115Z,81.70
2017-09-03T22:32:36.208Z,82.10
2017-09-03T22:35:04.265Z,82.00
2017-09-03T22:37:32.358Z,82.20
2017-09-03T22:40:00.431Z,82.20
2017-09-03T22:42:28.491Z,82.30
2017-09-03T22:44:56.574Z,82.30
2017-09-03T22:47:24.631Z,82.30
2017-09-03T22:49:52.716Z,82.30
2017-09-03T22:52:20.782Z,82.00
2017-09-03T22:54:48.843Z,82.10
2017-09-03T22:57:16.892Z,82.20
2017-09-03T22:59:44.999Z,82.40
2017-09-03T23:02:13.072Z,82.80
2017-09-03T23:04:41.131Z,82.90
2017-09-03T23:07:09.223Z,82.90
2017-09-03T23:09:37.271Z,82.80
2017-09-03T23:12:05.331Z,82.90
2017-09-03T23:14:33.387Z,83.00
2017-09-03T23:17:02.206Z,82.70
2017-09-03T23:19:30.272Z,82.60
2017-09-03T23:21:58.338Z,83.00
2017-09-03T23:24:26.405Z,82.70
2017-09-03T23:26:54.460Z,83.40
2017-09-03T23:29:22.510Z,82.80
2017-09-03T23:31:50.574Z,82.80
2017-09-03T23:34:18.630Z,82.60
2017-09-03T23:36:46.698Z,82.50
2017-09-03T23:39:14.758Z,82.40
2017-09-03T23:41:42.799Z,82.30
2017-09-03T23:44:10.883Z,82.50
2017-09-03T23:46:38.943Z,82.90
2017-09-03T23:49:07.831Z,82.70
2017-09-03T23:51:35.929Z,82.60
2017-09-03T23:54:04.719Z,82.70
2017-09-03T23:56:32.792Z,82.50
2017-09-03T23:59:00.883Z,82.70
